Time,TemperatureF,DewpointF,PressureIn,WindDirection,WindDirectionDegrees,WindSpeedMPH,WindSpeedGustMPH,Humidity,HourlyPrecipIn,Conditions,Clouds,dailyrainin,SoftwareType,DateUTC
2013-05-27 00:02:00,62.0,35.0,30.20,ESE,115,0.0,3.0,36,0.00,,,0.00,,2013-05-27 04:02:00,
2013-05-27 00:12:00,62.0,35.0,30.20,ESE,115,0.0,3.0,36,0.00,,,0.00,,2013-05-27 04:12:00,
2013-05-27 00:23:00,62.0,36.0,30.19,East,89,0.0,3.0,38,0.00,,,0.00,,2013-05-27 04:23:00,
2013-05-27 00:33:00,61.0,36.0,30.20,East,98,0.0,3.0,39,0.00,,,0.00,,2013-05-27 04:33:00,
2013-05-27 00:43:00,61.0,36.0,30.20,East,87,2.0,6.0,39,0.00,,,0.00,,2013-05-27 04:43:00,
2013-05-27 00:52:00,61.0,36.0,30.20,East,87,2.0,6.0,39,0.00,,,0.00,,2013-05-27 04:52:00,
2013-05-27 01:02:00,60.0,36.0,30.19,ESE,105,2.0,7.0,40,0.00,,,0.00,,2013-05-27 05:02:00,
2013-05-27 01:12:00,60.0,36.0,30.19,ESE,105,2.0,7.0,40,0.00,,,0.00,,2013-05-27 05:12:00,
2013-05-27 01:22:00,60.0,36.0,30.19,ESE,109,1.0,7.0,40,0.00,,,0.00,,2013-05-27 05:22:00,
2013-05-27 01:32:00,60.0,36.0,30.19,ESE,111,1.0,5.0,41,0.00,,,0.00,,2013-05-27 05:32:00,
2013-05-27 01:42:00,60.0,36.0,30.19,ESE,111,1.0,5.0,41,0.00,,,0.00,,2013-05-27 05:42:00,
2013-05-27 01:52:00,60.0,36.0,30.17,ESE,114,1.0,4.0,40,0.00,,,0.00,,2013-05-27 05:52:00,
2013-05-27 02:02:00,60.0,34.0,30.17,SE,138,0.0,5.0,38,0.00,,,0.00,,2013-05-27 06:02:00,
2013-05-27 02:11:00,60.0,34.0,30.17,SE,138,0.0,5.0,38,0.00,,,0.00,,2013-05-27 06:11:00,
2013-05-27 02:22:00,60.0,34.0,30.17,ESE,115,0.0,5.0,38,0.00,,,0.00,,2013-05-27 06:22:00,
2013-05-27 02:32:00,60.0,34.0,30.17,ESE,115,0.0,3.0,38,0.00,,,0.00,,2013-05-27 06:32:00,
2013-05-27 02:42:00,60.0,34.0,30.17,ESE,115,0.0,3.0,38,0.00,,,0.00,,2013-05-27 06:42:00,
2013-05-27 02:52:00,60.0,34.0,30.17,ESE,107,0.0,3.0,38,0.00,,,0.00,,2013-05-27 06:52:00,
2013-05-27 03:02:00,60.0,35.0,30.16,ESE,102,0.0,2.0,39,0.00,,,0.00,,2013-05-27 07:02:00,
2013-05-27 03:11:00,60.0,35.0,30.16,ESE,102,0.0,2.0,39,0.00,,,0.00,,2013-05-27 07:11:00,
2013-05-27 03:21:00,59.0,35.0,30.16,SE,138,0.0,3.0,40,0.00,,,0.00,,2013-05-27 07:21:00,
2013-05-27 03:32:00,59.0,35.0,30.16,ESE,115,0.0,2.0,40,0.00,,,0.00,,2013-05-27 07:32:00,
2013-05-27 03:42:00,59.0,35.0,30.16,ESE,115,0.0,2.0,40,0.00,,,0.00,,2013-05-27 07:42:00,
2013-05-27 03:52:00,59.0,35.0,30.16,SE,139,0.0,3.0,40,0.00,,,0.00,,2013-05-27 07:52:00,
2013-05-27 04:02:00,59.0,35.0,30.16,East,82,0.0,3.0,40,0.00,,,0.00,,2013-05-27 08:02:00,
2013-05-27 04:12:00,59.0,35.0,30.16,East,82,0.0,3.0,40,0.00,,,0.00,,2013-05-27 08:12:00,
2013-05-27 04:22:00,59.0,35.0,30.16,East,100,0.0,3.0,41,0.00,,,0.00,,2013-05-27 08:22:00,
2013-05-27 04:33:00,59.0,36.0,30.16,SSE,158,0.0,3.0,42,0.00,,,0.00,,2013-05-27 08:33:00,
2013-05-27 04:42:00,59.0,36.0,30.16,SSE,158,0.0,3.0,42,0.00,,,0.00,,2013-05-27 08:42:00,
2013-05-27 04:52:00,59.0,36.0,30.16,East,100,0.0,3.0,42,0.00,,,0.00,,2013-05-27 08:52:00,
2013-05-27 05:02:00,59.0,36.0,30.16,ESE,123,0.0,2.0,42,0.00,,,0.00,,2013-05-27 09:02:00,
2013-05-27 05:11:00,59.0,36.0,30.16,ESE,123,0.0,2.0,42,0.00,,,0.00,,2013-05-27 09:11:00,
2013-05-27 05:22:00,59.0,37.0,30.16,SSE,166,1.0,3.0,44,0.00,,,0.00,,2013-05-27 09:22:00,
2013-05-27 05:33:00,58.0,42.0,30.16,SSW,206,2.0,6.0,55,0.00,,,0.00,,2013-05-27 09:33:00,
2013-05-27 05:42:00,58.0,42.0,30.16,SSW,206,2.0,6.0,55,0.00,,,0.00,,2013-05-27 09:42:00,
2013-05-27 05:53:00,57.0,44.0,30.17,SSE,165,0.0,5.0,61,0.01,,,0.01,,2013-05-27 09:53:00,
2013-05-27 06:03:00,55.0,44.0,30.17,SSW,194,0.0,3.0,66,0.01,,,0.01,,2013-05-27 10:03:00,
2013-05-27 06:12:00,55.0,44.0,30.17,SSW,194,0.0,3.0,66,0.01,,,0.01,,2013-05-27 10:12:00,
2013-05-27 06:23:00,55.0,45.0,30.18,SE,144,0.0,4.0,68,0.01,,,0.01,,2013-05-27 10:23:00,
2013-05-27 06:32:00,54.0,46.0,30.18,SSE,157,0.0,4.0,74,0.02,,,0.02,,2013-05-27 10:32:00,
2013-05-27 06:42:00,54.0,46.0,30.18,SSE,157,0.0,4.0,74,0.02,,,0.02,,2013-05-27 10:42:00,
2013-05-27 06:52:00,53.0,46.0,30.17,SSE,163,2.0,7.0,77,0.02,,,0.03,,2013-05-27 10:52:00,
2013-05-27 07:02:00,52.0,47.0,30.17,SE,138,2.0,7.0,83,0.03,,,0.04,,2013-05-27 11:02:00,
2013-05-27 07:11:00,52.0,47.0,30.17,SE,138,2.0,7.0,83,0.03,,,0.04,,2013-05-27 11:11:00,
2013-05-27 07:22:00,51.0,47.0,30.17,South,187,0.0,5.0,87,0.04,,,0.05,,2013-05-27 11:22:00,
2013-05-27 07:32:00,51.0,48.0,30.17,SSE,149,1.0,5.0,90,0.04,,,0.06,,2013-05-27 11:32:00,
2013-05-27 07:42:00,51.0,48.0,30.17,SSE,149,1.0,5.0,90,0.04,,,0.06,,2013-05-27 11:42:00,
2013-05-27 07:52:00,51.0,49.0,30.17,South,184,1.0,4.0,92,0.05,,,0.08,,2013-05-27 11:52:00,
2013-05-27 08:02:00,51.0,49.0,30.17,SE,138,2.0,7.0,93,0.04,,,0.08,,2013-05-27 12:02:00,
2013-05-27 08:11:00,51.0,49.0,30.17,SE,138,2.0,7.0,93,0.04,,,0.08,,2013-05-27 12:11:00,
2013-05-27 08:22:00,51.0,49.0,30.17,SSE,163,2.0,12.0,93,0.04,,,0.09,,2013-05-27 12:22:00,
2013-05-27 08:32:00,51.0,49.0,30.18,SE,146,1.0,10.0,92,0.04,,,0.10,,2013-05-27 12:32:00,
2013-05-27 08:42:00,51.0,49.0,30.18,SE,146,1.0,10.0,92,0.04,,,0.10,,2013-05-27 12:42:00,
2013-05-27 08:52:00,51.0,48.0,30.17,SE,139,2.0,7.0,91,0.03,,,0.11,,2013-05-27 12:52:00,
2013-05-27 09:02:00,52.0,49.0,30.17,ESE,121,0.0,5.0,91,0.04,,,0.12,,2013-05-27 13:02:00,
2013-05-27 09:11:00,52.0,49.0,30.17,ESE,121,0.0,5.0,91,0.04,,,0.12,,2013-05-27 13:11:00,
2013-05-27 09:22:00,52.0,49.0,30.17,South,175,1.0,6.0,90,0.03,,,0.12,,2013-05-27 13:22:00,
2013-05-27 09:32:00,52.0,49.0,30.16,SE,138,2.0,8.0,88,0.03,,,0.13,,2013-05-27 13:32:00,
2013-05-27 09:42:00,52.0,49.0,30.16,SE,138,2.0,8.0,88,0.03,,,0.13,,2013-05-27 13:42:00,
2013-05-27 09:52:00,52.0,48.0,30.17,SE,144,2.0,8.0,87,0.02,,,0.13,,2013-05-27 13:52:00,
2013-05-27 10:02:00,52.0,48.0,30.16,SSE,147,2.0,6.0,87,0.02,,,0.14,,2013-05-27 14:02:00,
2013-05-27 10:11:00,52.0,48.0,30.16,SSE,147,2.0,6.0,87,0.02,,,0.14,,2013-05-27 14:11:00,
2013-05-27 10:22:00,52.0,49.0,30.16,SE,125,2.0,8.0,89,0.02,,,0.14,,2013-05-27 14:22:00,
2013-05-27 10:32:00,52.0,49.0,30.15,East,90,1.0,8.0,90,0.01,,,0.14,,2013-05-27 14:32:00,
2013-05-27 10:42:00,52.0,49.0,30.15,East,90,1.0,8.0,90,0.01,,,0.14,,2013-05-27 14:42:00,
2013-05-27 10:52:00,52.0,49.0,30.14,SE,138,2.0,8.0,89,0.02,,,0.15,,2013-05-27 14:52:00,
2013-05-27 11:02:00,52.0,48.0,30.13,ENE,57,2.0,8.0,87,0.01,,,0.15,,2013-05-27 15:02:00,
2013-05-27 11:11:00,52.0,48.0,30.13,ENE,57,2.0,8.0,87,0.01,,,0.15,,2013-05-27 15:11:00,
2013-05-27 11:22:00,53.0,50.0,30.12,ESE,121,1.0,9.0,88,0.01,,,0.15,,2013-05-27 15:22:00,
2013-05-27 11:33:00,54.0,49.0,30.12,South,175,4.0,10.0,83,0.02,,,0.16,,2013-05-27 15:33:00,
2013-05-27 11:43:00,54.0,49.0,30.12,South,175,4.0,10.0,83,0.02,,,0.16,,2013-05-27 15:43:00,
2013-05-27 11:53:00,55.0,50.0,30.12,East,84,4.0,9.0,82,0.01,,,0.16,,2013-05-27 15:53:00,
2013-05-27 12:03:00,55.0,50.0,30.11,SE,146,2.0,7.0,84,0.01,,,0.16,,2013-05-27 16:03:00,
2013-05-27 12:12:00,55.0,50.0,30.11,SE,146,2.0,7.0,84,0.01,,,0.16,,2013-05-27 16:12:00,
2013-05-27 12:23:00,55.0,50.0,30.11,NE,44,6.0,11.0,82,0.01,,,0.16,,2013-05-27 16:23:00,
2013-05-27 12:33:00,56.0,50.0,30.10,SE,129,4.0,10.0,81,0.00,,,0.16,,2013-05-27 16:33:00,
2013-05-27 12:42:00,56.0,50.0,30.10,SE,129,4.0,10.0,81,0.00,,,0.16,,2013-05-27 16:42:00,
2013-05-27 12:52:00,57.0,52.0,30.09,East,94,4.0,12.0,82,0.00,,,0.16,,2013-05-27 16:52:00,
2013-05-27 13:02:00,57.0,51.0,30.09,SE,142,4.0,11.0,81,0.00,,,0.16,,2013-05-27 17:02:00,
2013-05-27 13:12:00,57.0,51.0,30.09,SE,142,4.0,11.0,81,0.00,,,0.16,,2013-05-27 17:12:00,
2013-05-27 13:22:00,58.0,52.0,30.08,SSW,194,4.0,12.0,79,0.00,,,0.16,,2013-05-27 17:22:00,
2013-05-27 13:32:00,59.0,53.0,30.07,SE,134,3.0,11.0,80,0.00,,,0.16,,2013-05-27 17:32:00,
2013-05-27 13:43:00,59.0,53.0,30.07,SE,134,3.0,11.0,80,0.00,,,0.16,,2013-05-27 17:43:00,
2013-05-27 13:52:00,59.0,52.0,30.07,ESE,118,4.0,9.0,79,0.00,,,0.16,,2013-05-27 17:52:00,
2013-05-27 14:02:00,59.0,53.0,30.08,East,94,2.0,12.0,80,0.00,,,0.16,,2013-05-27 18:02:00,
2013-05-27 14:11:00,59.0,53.0,30.08,East,94,2.0,12.0,80,0.00,,,0.16,,2013-05-27 18:11:00,
2013-05-27 14:22:00,59.0,53.0,30.09,East,92,0.0,4.0,81,0.00,,,0.16,,2013-05-27 18:22:00,
2013-05-27 14:32:00,59.0,53.0,30.07,East,82,1.0,6.0,81,0.00,,,0.16,,2013-05-27 18:32:00,
2013-05-27 14:42:00,59.0,53.0,30.07,East,82,1.0,6.0,81,0.00,,,0.16,,2013-05-27 18:42:00,
2013-05-27 14:52:00,60.0,54.0,30.06,East,91,2.0,8.0,81,0.00,,,0.16,,2013-05-27 18:52:00,
2013-05-27 15:01:00,59.0,54.0,30.04,East,83,2.0,7.0,84,0.00,,,0.16,,2013-05-27 19:01:00,
2013-05-27 15:11:00,59.0,54.0,30.04,East,83,2.0,7.0,84,0.00,,,0.16,,2013-05-27 19:11:00,
2013-05-27 15:22:00,58.0,54.0,30.04,East,89,2.0,7.0,87,0.01,,,0.17,,2013-05-27 19:22:00,
2013-05-27 15:32:00,57.0,54.0,30.03,ENE,76,4.0,9.0,89,0.01,,,0.17,,2013-05-27 19:32:00,
2013-05-27 15:42:00,57.0,54.0,30.03,ENE,76,4.0,9.0,89,0.01,,,0.17,,2013-05-27 19:42:00,
2013-05-27 15:52:00,57.0,55.0,30.03,SE,132,1.0,7.0,92,0.01,,,0.17,,2013-05-27 19:52:00,
2013-05-27 16:02:00,58.0,56.0,30.02,East,84,1.0,7.0,92,0.01,,,0.17,,2013-05-27 20:02:00,
2013-05-27 16:11:00,58.0,56.0,30.02,East,84,1.0,7.0,92,0.01,,,0.17,,2013-05-27 20:11:00,
2013-05-27 16:22:00,58.0,56.0,30.01,ESE,109,0.0,7.0,92,0.00,,,0.17,,2013-05-27 20:22:00,
2013-05-27 16:32:00,58.0,55.0,30.01,SE,124,2.0,9.0,91,0.00,,,0.17,,2013-05-27 20:32:00,
2013-05-27 16:42:00,58.0,55.0,29.99,East,92,2.0,6.0,91,0.00,,,0.17,,2013-05-27 20:42:00,
2013-05-27 16:52:00,58.0,55.0,29.99,East,92,2.0,6.0,91,0.00,,,0.17,,2013-05-27 20:52:00,
2013-05-27 17:01:00,58.0,55.0,29.99,East,84,3.0,9.0,90,0.01,,,0.18,,2013-05-27 21:01:00,
2013-05-27 17:12:00,58.0,55.0,29.99,East,84,3.0,9.0,90,0.01,,,0.18,,2013-05-27 21:12:00,
2013-05-27 17:22:00,58.0,55.0,29.99,East,80,2.0,8.0,91,0.01,,,0.18,,2013-05-27 21:22:00,
2013-05-27 17:33:00,58.0,56.0,29.98,East,94,1.0,4.0,92,0.01,,,0.18,,2013-05-27 21:33:00,
2013-05-27 17:43:00,57.0,55.0,29.98,East,89,2.0,5.0,92,0.01,,,0.18,,2013-05-27 21:43:00,
2013-05-27 17:53:00,57.0,55.0,29.98,East,89,2.0,5.0,92,0.01,,,0.18,,2013-05-27 21:53:00,
2013-05-27 18:02:00,57.0,55.0,29.98,East,86,2.0,6.0,92,0.00,,,0.18,,2013-05-27 22:02:00,
2013-05-27 18:13:00,57.0,55.0,29.98,East,86,2.0,6.0,92,0.00,,,0.18,,2013-05-27 22:13:00,
2013-05-27 18:23:00,57.0,55.0,29.96,SE,126,2.0,8.0,93,0.00,,,0.18,,2013-05-27 22:23:00,
2013-05-27 18:33:00,56.0,54.0,29.95,SE,132,2.0,9.0,93,0.00,,,0.18,,2013-05-27 22:33:00,
2013-05-27 18:42:00,56.0,54.0,29.95,SE,132,2.0,9.0,93,0.00,,,0.18,,2013-05-27 22:42:00,
2013-05-27 18:52:00,56.0,54.0,29.95,ESE,107,1.0,11.0,93,0.00,,,0.18,,2013-05-27 22:52:00,
2013-05-27 19:52:00,56.0,54.0,29.94,East,99,1.0,8.0,94,0.00,,,0.18,,2013-05-27 23:52:00,
2013-05-27 20:01:00,56.0,54.0,29.93,East,88,1.0,11.0,94,0.01,,,0.19,,2013-05-28 00:01:00,
2013-05-27 20:11:00,56.0,54.0,29.93,East,88,1.0,11.0,94,0.01,,,0.19,,2013-05-28 00:11:00,
2013-05-27 20:22:00,56.0,54.0,29.94,SE,134,2.0,9.0,94,0.01,,,0.19,,2013-05-28 00:22:00,
2013-05-27 20:32:00,56.0,54.0,29.93,SE,126,2.0,7.0,94,0.01,,,0.19,,2013-05-28 00:32:00,
2013-05-27 20:42:00,56.0,54.0,29.93,SE,126,2.0,7.0,94,0.01,,,0.19,,2013-05-28 00:42:00,
2013-05-27 20:52:00,56.0,54.0,29.93,East,98,2.0,8.0,94,0.01,,,0.19,,2013-05-28 00:52:00,
2013-05-27 21:01:00,57.0,55.0,29.93,ENE,70,1.0,7.0,94,0.00,,,0.19,,2013-05-28 01:01:00,
2013-05-27 21:11:00,57.0,55.0,29.93,ENE,70,1.0,7.0,94,0.00,,,0.19,,2013-05-28 01:11:00,
2013-05-27 21:22:00,57.0,56.0,29.93,East,95,0.0,7.0,95,0.00,,,0.19,,2013-05-28 01:22:00,
2013-05-27 21:32:00,57.0,56.0,29.93,SE,137,0.0,5.0,96,0.00,,,0.19,,2013-05-28 01:32:00,
2013-05-27 21:42:00,57.0,56.0,29.93,SE,137,0.0,5.0,96,0.00,,,0.19,,2013-05-28 01:42:00,
2013-05-27 21:52:00,57.0,56.0,29.92,East,98,0.0,6.0,96,0.00,,,0.19,,2013-05-28 01:52:00,
2013-05-27 22:02:00,57.0,56.0,29.92,SE,131,1.0,7.0,96,0.00,,,0.19,,2013-05-28 02:02:00,
2013-05-27 22:11:00,57.0,56.0,29.92,SE,131,1.0,7.0,96,0.00,,,0.19,,2013-05-28 02:11:00,
2013-05-27 22:22:00,57.0,56.0,29.93,East,99,0.0,4.0,96,0.01,,,0.20,,2013-05-28 02:22:00,
2013-05-27 22:32:00,57.0,56.0,29.92,SE,124,1.0,4.0,97,0.01,,,0.20,,2013-05-28 02:32:00,
2013-05-27 22:42:00,57.0,56.0,29.92,SE,124,1.0,4.0,97,0.01,,,0.20,,2013-05-28 02:42:00,
2013-05-27 22:52:00,57.0,56.0,29.92,East,88,1.0,5.0,97,0.01,,,0.20,,2013-05-28 02:52:00,
2013-05-27 23:01:00,57.0,56.0,29.92,ESE,121,0.0,5.0,97,0.01,,,0.20,,2013-05-28 03:01:00,
2013-05-27 23:11:00,57.0,56.0,29.92,ESE,121,0.0,5.0,97,0.01,,,0.20,,2013-05-28 03:11:00,
2013-05-27 23:22:00,58.0,57.0,29.91,ESE,117,0.0,6.0,98,0.00,,,0.20,,2013-05-28 03:22:00,
2013-05-27 23:33:00,59.0,58.0,29.91,SSW,198,1.0,6.0,98,0.00,,,0.20,,2013-05-28 03:33:00,
2013-05-27 23:43:00,59.0,58.0,29.91,SSW,198,1.0,6.0,98,0.00,,,0.20,,2013-05-28 03:43:00,
2013-05-27 23:53:00,60.0,59.0,29.91,SE,142,1.0,5.0,98,0.00,,,0.20,,2013-05-28 03:53:00,